Aeroporto :
LOGIN :

Iscrizione | Disclaimer

   EN    FR    IT 

 










Sommario :    VFR   VFR Marginale   IFR   IFR Intensivo   IFR Molto Intensivo
Visibilità : 
Base nubi : 
>= 8 km
>= 3000ft
5 / 8 km
1000 / 3000 ft
1500m / 5 km
500 / 1000 ft
800 / 1500m
200 / 500 ft
< 800m
< 200 ft
Simboli :   Temporali  Nebbia  Neve Forte  Precipitazioni Forti  Vento > 20 kt
SIGMETs :   Varie  Temporali  Ghiacco  Turbolenza  Onda orograficha  Ceneri Vulcaniche






- Altitudine del aeroporto : 1302 ft
- Codice IATA : GNB


LFLS - Grenoble / St. Geoirs

ULTIMO METAR :
  • 120400Z AUTO 07006KT 9999 4800 SCT045 SCT054 M00/M00 Q1011 TEMPO 3000 BR

METARs OBSOLETI :
  • 120330Z AUTO 08004KT 9000 FEW022 M01/M01 Q1011 TEMPO 3000 BR
  • 120300Z AUTO 08006KT 040V110 6000 FEW023 01/00 Q1011 TEMPO 3000 BR
  • 120230Z AUTO VRB02KT 5000 BR FEW037 BKN046 01/01 Q1011 NOSIG
  • 120200Z AUTO 11006KT 5000 BR SCT026 BKN032 BKN042 01/01 Q1011
  • 120130Z AUTO 06007KT 6000 -RA SCT026 OVC033 02/02 Q1011

TAF TAF LFLS
Valido dal 12 a 03 ore il 13 a 03 ore UTC


120200Z 1203/1303 VRB03KT 9999 BKN030
PROB40
TEMPO 1203/1207 3000 BR
BECMG 1211/1213 CAVOK
BECMG 1218/1220 18008KT
TEMPO 1220/1303 18020G35KT 4000 RA BKN020
ATIS : +33 4 76 65 55 89



MetMap, La meteo Aeronautica in un colpo d'occhio ! - Copyright ORBIFLY Dicembre 2007 - Disclaimer

ORBIFLY MET'MAP TEAM :

Programmazione e sviluppo : Alexandra Zaïnal
Concezione : Baudouin d'Aumeries
Aiuto per la programmazione : Marc-Olivier Méhu
Supporto tecnico e logistico : Manuel Goepfert
Aiuto per la traduzione : Arnaldo La Scala

Contatto : metmap@orbifly.com




FONTI E CREDITI :

   NOAA